sensor_id;sensor_type;location;lat;lon;timestamp;temperature;humidity
52709;DHT22;38606;52.986;6.980;2022-08-21T00:01:06;17.30;99.90
52709;DHT22;38606;52.986;6.980;2022-08-21T00:03:34;17.20;99.90
52709;DHT22;38606;52.986;6.980;2022-08-21T00:06:00;17.90;99.90
52709;DHT22;38606;52.986;6.980;2022-08-21T00:08:26;17.00;99.90
52709;DHT22;38606;52.986;6.980;2022-08-21T00:10:52;17.10;99.90
52709;DHT22;38606;52.986;6.980;2022-08-21T00:13:18;16.90;99.90
52709;DHT22;38606;52.986;6.980;2022-08-21T00:15:46;17.10;99.90
52709;DHT22;38606;52.986;6.980;2022-08-21T00:18:12;16.80;99.90
52709;DHT22;38606;52.986;6.980;2022-08-21T00:20:40;16.80;99.90
52709;DHT22;38606;52.986;6.980;2022-08-21T00:23:06;16.90;99.90
52709;DHT22;38606;52.986;6.980;2022-08-21T00:25:32;16.80;99.90
52709;DHT22;38606;52.986;6.980;2022-08-21T00:27:58;16.90;99.90
52709;DHT22;38606;52.986;6.980;2022-08-21T00:30:25;16.90;99.90
52709;DHT22;38606;52.986;6.980;2022-08-21T00:32:53;16.60;99.90
52709;DHT22;38606;52.986;6.980;2022-08-21T00:35:22;16.70;99.90
52709;DHT22;38606;52.986;6.980;2022-08-21T00:37:49;16.70;99.90
52709;DHT22;38606;52.986;6.980;2022-08-21T00:40:19;16.40;99.90
52709;DHT22;38606;52.986;6.980;2022-08-21T00:42:46;16.60;99.90
52709;DHT22;38606;52.986;6.980;2022-08-21T00:45:12;16.50;99.90
52709;DHT22;38606;52.986;6.980;2022-08-21T00:47:37;16.30;99.90
52709;DHT22;38606;52.986;6.980;2022-08-21T00:50:05;16.40;99.90
52709;DHT22;38606;52.986;6.980;2022-08-21T00:52:33;16.30;99.90
52709;DHT22;38606;52.986;6.980;2022-08-21T00:55:00;16.20;99.90
52709;DHT22;38606;52.986;6.980;2022-08-21T00:57:36;16.40;99.90
52709;DHT22;38606;52.986;6.980;2022-08-21T01:00:07;16.30;99.90
52709;DHT22;38606;52.986;6.980;2022-08-21T01:02:33;16.20;99.90
52709;DHT22;38606;52.986;6.980;2022-08-21T01:04:59;16.20;99.90
52709;DHT22;38606;52.986;6.980;2022-08-21T01:07:25;16.30;99.90
52709;DHT22;38606;52.986;6.980;2022-08-21T01:09:51;16.00;99.90
52709;DHT22;38606;52.986;6.980;2022-08-21T01:12:18;16.10;99.90
52709;DHT22;38606;52.986;6.980;2022-08-21T01:14:44;16.10;99.90
52709;DHT22;38606;52.986;6.980;2022-08-21T01:17:11;16.20;99.90
52709;DHT22;38606;52.986;6.980;2022-08-21T01:19:38;16.00;99.90
52709;DHT22;38606;52.986;6.980;2022-08-21T01:22:04;15.80;99.90
52709;DHT22;38606;52.986;6.980;2022-08-21T01:24:30;16.10;99.90
52709;DHT22;38606;52.986;6.980;2022-08-21T01:26:58;16.10;99.90
52709;DHT22;38606;52.986;6.980;2022-08-21T01:29:39;16.00;99.90
52709;DHT22;38606;52.986;6.980;2022-08-21T01:32:12;16.20;99.90
52709;DHT22;38606;52.986;6.980;2022-08-21T01:34:40;16.10;99.90
52709;DHT22;38606;52.986;6.980;2022-08-21T01:37:06;15.40;99.90
52709;DHT22;38606;52.986;6.980;2022-08-21T01:39:32;16.10;99.90
52709;DHT22;38606;52.986;6.980;2022-08-21T01:41:58;16.00;99.90
52709;DHT22;38606;52.986;6.980;2022-08-21T01:44:25;15.90;99.90
52709;DHT22;38606;52.986;6.980;2022-08-21T01:46:52;16.00;99.90
52709;DHT22;38606;52.986;6.980;2022-08-21T01:49:19;15.80;99.90
52709;DHT22;38606;52.986;6.980;2022-08-21T01:51:44;16.00;99.90
52709;DHT22;38606;52.986;6.980;2022-08-21T01:54:10;16.00;99.90
52709;DHT22;38606;52.986;6.980;2022-08-21T01:56:43;16.00;99.90
52709;DHT22;38606;52.986;6.980;2022-08-21T01:59:10;15.80;99.90
52709;DHT22;38606;52.986;6.980;2022-08-21T02:01:36;15.80;99.90
52709;DHT22;38606;52.986;6.980;2022-08-21T02:04:05;15.90;99.90
52709;DHT22;38606;52.986;6.980;2022-08-21T02:06:32;16.00;99.90
52709;DHT22;38606;52.986;6.980;2022-08-21T02:08:58;15.90;99.90
52709;DHT22;38606;52.986;6.980;2022-08-21T02:11:23;16.00;99.90
52709;DHT22;38606;52.986;6.980;2022-08-21T02:13:49;15.70;99.90
52709;DHT22;38606;52.986;6.980;2022-08-21T02:16:15;15.70;99.90
52709;DHT22;38606;52.986;6.980;2022-08-21T02:18:41;15.60;99.90
52709;DHT22;38606;52.986;6.980;2022-08-21T02:21:07;15.90;99.90
52709;DHT22;38606;52.986;6.980;2022-08-21T02:23:33;15.90;99.90
52709;DHT22;38606;52.986;6.980;2022-08-21T02:26:04;15.80;99.90
52709;DHT22;38606;52.986;6.980;2022-08-21T02:28:30;15.60;99.90
52709;DHT22;38606;52.986;6.980;2022-08-21T02:30:56;15.70;99.90
52709;DHT22;38606;52.986;6.980;2022-08-21T02:33:23;15.70;99.90
52709;DHT22;38606;52.986;6.980;2022-08-21T02:35:49;15.60;99.90
52709;DHT22;38606;52.986;6.980;2022-08-21T02:38:19;14.20;99.90
52709;DHT22;38606;52.986;6.980;2022-08-21T02:40:46;15.60;99.90
52709;DHT22;38606;52.986;6.980;2022-08-21T02:43:12;15.60;99.90
52709;DHT22;38606;52.986;6.980;2022-08-21T02:45:39;15.60;99.90
52709;DHT22;38606;52.986;6.980;2022-08-21T02:48:08;16.30;99.90
52709;DHT22;38606;52.986;6.980;2022-08-21T02:50:50;15.60;99.90
52709;DHT22;38606;52.986;6.980;2022-08-21T02:53:17;15.50;99.90
52709;DHT22;38606;52.986;6.980;2022-08-21T02:55:47;15.60;99.90
52709;DHT22;38606;52.986;6.980;2022-08-21T02:58:15;15.60;99.90
52709;DHT22;38606;52.986;6.980;2022-08-21T03:00:42;15.40;99.90
52709;DHT22;38606;52.986;6.980;2022-08-21T03:03:09;15.80;99.90
52709;DHT22;38606;52.986;6.980;2022-08-21T03:05:36;15.30;99.90
52709;DHT22;38606;52.986;6.980;2022-08-21T03:08:05;15.50;99.90
52709;DHT22;38606;52.986;6.980;2022-08-21T03:10:36;15.40;99.90
52709;DHT22;38606;52.986;6.980;2022-08-21T03:13:02;15.30;99.90
52709;DHT22;38606;52.986;6.980;2022-08-21T03:15:28;15.50;99.90
52709;DHT22;38606;52.986;6.980;2022-08-21T03:17:54;15.40;99.90
52709;DHT22;38606;52.986;6.980;2022-08-21T03:20:23;15.30;99.90
52709;DHT22;38606;52.986;6.980;2022-08-21T03:22:51;16.60;99.90
52709;DHT22;38606;52.986;6.980;2022-08-21T03:25:17;17.50;99.90
52709;DHT22;38606;52.986;6.980;2022-08-21T03:27:44;15.20;99.90
52709;DHT22;38606;52.986;6.980;2022-08-21T03:30:10;15.40;99.90
52709;DHT22;38606;52.986;6.980;2022-08-21T03:32:36;15.10;99.90
52709;DHT22;38606;52.986;6.980;2022-08-21T03:35:03;15.40;99.90
52709;DHT22;38606;52.986;6.980;2022-08-21T03:37:29;15.40;99.90
52709;DHT22;38606;52.986;6.980;2022-08-21T03:39:55;15.10;99.90
52709;DHT22;38606;52.986;6.980;2022-08-21T03:42:21;15.20;99.90
52709;DHT22;38606;52.986;6.980;2022-08-21T03:44:47;16.20;99.90
52709;DHT22;38606;52.986;6.980;2022-08-21T03:47:13;15.20;99.90
52709;DHT22;38606;52.986;6.980;2022-08-21T03:49:38;15.20;99.90
52709;DHT22;38606;52.986;6.980;2022-08-21T03:52:04;15.20;99.90
52709;DHT22;38606;52.986;6.980;2022-08-21T03:54:30;15.90;99.90
52709;DHT22;38606;52.986;6.980;2022-08-21T03:56:56;15.10;99.90
52709;DHT22;38606;52.986;6.980;2022-08-21T03:59:22;15.10;99.90
52709;DHT22;38606;52.986;6.980;2022-08-21T04:01:56;15.00;99.90
52709;DHT22;38606;52.986;6.980;2022-08-21T04:04:22;15.40;99.90
52709;DHT22;38606;52.986;6.980;2022-08-21T04:06:48;15.10;99.90
52709;DHT22;38606;52.986;6.980;2022-08-21T04:09:16;15.00;99.90
52709;DHT22;38606;52.986;6.980;2022-08-21T04:11:42;15.00;99.90
52709;DHT22;38606;52.986;6.980;2022-08-21T04:14:08;15.00;99.90
52709;DHT22;38606;52.986;6.980;2022-08-21T04:16:34;15.30;99.90
52709;DHT22;38606;52.986;6.980;2022-08-21T04:18:59;15.00;99.90
52709;DHT22;38606;52.986;6.980;2022-08-21T04:21:25;15.10;99.90
52709;DHT22;38606;52.986;6.980;2022-08-21T04:23:51;15.20;99.90
52709;DHT22;38606;52.986;6.980;2022-08-21T04:26:19;15.20;99.90
52709;DHT22;38606;52.986;6.980;2022-08-21T04:28:44;15.30;99.90
52709;DHT22;38606;52.986;6.980;2022-08-21T04:31:10;14.90;99.90
52709;DHT22;38606;52.986;6.980;2022-08-21T04:33:36;14.90;99.90
52709;DHT22;38606;52.986;6.980;2022-08-21T04:36:02;15.00;99.90
52709;DHT22;38606;52.986;6.980;2022-08-21T04:38:28;15.20;99.90
52709;DHT22;38606;52.986;6.980;2022-08-21T04:40:53;15.60;99.90
52709;DHT22;38606;52.986;6.980;2022-08-21T04:43:19;15.00;99.90
52709;DHT22;38606;52.986;6.980;2022-08-21T04:45:49;15.00;99.90
52709;DHT22;38606;52.986;6.980;2022-08-21T04:48:21;15.20;99.90
52709;DHT22;38606;52.986;6.980;2022-08-21T04:51:11;14.90;99.90
52709;DHT22;38606;52.986;6.980;2022-08-21T04:53:52;15.20;99.90
52709;DHT22;38606;52.986;6.980;2022-08-21T04:56:23;15.40;99.90
52709;DHT22;38606;52.986;6.980;2022-08-21T04:58:51;14.90;99.90
52709;DHT22;38606;52.986;6.980;2022-08-21T05:01:21;15.20;99.90
52709;DHT22;38606;52.986;6.980;2022-08-21T05:03:49;15.30;99.90
52709;DHT22;38606;52.986;6.980;2022-08-21T05:06:16;15.10;99.90
52709;DHT22;38606;52.986;6.980;2022-08-21T05:08:45;15.30;99.90
52709;DHT22;38606;52.986;6.980;2022-08-21T05:11:12;15.30;99.90
52709;DHT22;38606;52.986;6.980;2022-08-21T05:13:38;15.20;99.90
52709;DHT22;38606;52.986;6.980;2022-08-21T05:16:06;15.40;99.90
52709;DHT22;38606;52.986;6.980;2022-08-21T05:18:31;15.40;99.90
52709;DHT22;38606;52.986;6.980;2022-08-21T05:20:57;15.30;99.90
52709;DHT22;38606;52.986;6.980;2022-08-21T05:23:23;15.10;99.90
52709;DHT22;38606;52.986;6.980;2022-08-21T05:25:49;15.50;99.90
52709;DHT22;38606;52.986;6.980;2022-08-21T05:28:14;15.70;99.90
52709;DHT22;38606;52.986;6.980;2022-08-21T05:30:40;15.60;99.90
52709;DHT22;38606;52.986;6.980;2022-08-21T05:33:07;15.60;99.90
52709;DHT22;38606;52.986;6.980;2022-08-21T05:35:33;15.50;99.90
52709;DHT22;38606;52.986;6.980;2022-08-21T05:37:59;18.00;99.90
52709;DHT22;38606;52.986;6.980;2022-08-21T05:40:26;15.90;99.90
52709;DHT22;38606;52.986;6.980;2022-08-21T05:42:54;15.80;99.90
52709;DHT22;38606;52.986;6.980;2022-08-21T05:45:20;14.30;99.90
52709;DHT22;38606;52.986;6.980;2022-08-21T05:47:46;15.80;99.90
52709;DHT22;38606;52.986;6.980;2022-08-21T05:50:12;16.30;99.90
52709;DHT22;38606;52.986;6.980;2022-08-21T05:52:38;16.20;99.90
52709;DHT22;38606;52.986;6.980;2022-08-21T05:55:04;16.30;99.90
52709;DHT22;38606;52.986;6.980;2022-08-21T05:57:30;16.30;99.90
52709;DHT22;38606;52.986;6.980;2022-08-21T05:59:55;16.40;99.90
52709;DHT22;38606;52.986;6.980;2022-08-21T06:02:21;16.20;99.90
52709;DHT22;38606;52.986;6.980;2022-08-21T06:04:47;16.70;99.90
52709;DHT22;38606;52.986;6.980;2022-08-21T06:07:13;16.60;99.90
52709;DHT22;38606;52.986;6.980;2022-08-21T06:09:39;16.60;99.90
52709;DHT22;38606;52.986;6.980;2022-08-21T06:12:08;16.60;99.90
52709;DHT22;38606;52.986;6.980;2022-08-21T06:14:35;16.90;99.90
52709;DHT22;38606;52.986;6.980;2022-08-21T06:17:09;17.10;99.90
52709;DHT22;38606;52.986;6.980;2022-08-21T06:19:36;17.00;99.90
52709;DHT22;38606;52.986;6.980;2022-08-21T06:22:02;17.20;99.90
52709;DHT22;38606;52.986;6.980;2022-08-21T06:24:28;17.10;99.90
52709;DHT22;38606;52.986;6.980;2022-08-21T06:26:54;17.10;99.90
52709;DHT22;38606;52.986;6.980;2022-08-21T06:29:20;17.20;99.90
52709;DHT22;38606;52.986;6.980;2022-08-21T06:31:47;17.60;99.90
52709;DHT22;38606;52.986;6.980;2022-08-21T06:34:14;17.50;99.90
52709;DHT22;38606;52.986;6.980;2022-08-21T06:36:40;17.70;99.90
52709;DHT22;38606;52.986;6.980;2022-08-21T06:39:05;17.80;99.90
52709;DHT22;38606;52.986;6.980;2022-08-21T06:41:32;17.80;99.90
52709;DHT22;38606;52.986;6.980;2022-08-21T06:43:58;17.80;99.90
52709;DHT22;38606;52.986;6.980;2022-08-21T06:46:26;18.00;99.90
52709;DHT22;38606;52.986;6.980;2022-08-21T06:48:52;18.20;99.90
52709;DHT22;38606;52.986;6.980;2022-08-21T06:51:18;18.30;99.90
52709;DHT22;38606;52.986;6.980;2022-08-21T06:53:44;18.40;99.90
52709;DHT22;38606;52.986;6.980;2022-08-21T06:56:10;18.50;99.90
52709;DHT22;38606;52.986;6.980;2022-08-21T06:58:36;18.40;99.90
52709;DHT22;38606;52.986;6.980;2022-08-21T07:01:03;18.60;99.90
52709;DHT22;38606;52.986;6.980;2022-08-21T07:03:35;18.30;99.90
52709;DHT22;38606;52.986;6.980;2022-08-21T07:06:01;18.80;99.90
52709;DHT22;38606;52.986;6.980;2022-08-21T07:08:28;19.20;99.90
52709;DHT22;38606;52.986;6.980;2022-08-21T07:10:56;19.00;99.90
52709;DHT22;38606;52.986;6.980;2022-08-21T07:13:22;19.40;99.90
52709;DHT22;38606;52.986;6.980;2022-08-21T07:15:48;19.20;99.90
52709;DHT22;38606;52.986;6.980;2022-08-21T07:18:14;19.30;99.90
52709;DHT22;38606;52.986;6.980;2022-08-21T07:20:41;19.70;99.90
52709;DHT22;38606;52.986;6.980;2022-08-21T07:23:30;19.60;99.90
52709;DHT22;38606;52.986;6.980;2022-08-21T07:25:57;19.80;99.90
52709;DHT22;38606;52.986;6.980;2022-08-21T07:28:25;19.80;99.90
52709;DHT22;38606;52.986;6.980;2022-08-21T07:30:52;19.20;99.90
52709;DHT22;38606;52.986;6.980;2022-08-21T07:33:18;20.10;99.90
52709;DHT22;38606;52.986;6.980;2022-08-21T07:35:44;20.30;99.90
52709;DHT22;38606;52.986;6.980;2022-08-21T07:38:09;20.60;99.90
52709;DHT22;38606;52.986;6.980;2022-08-21T07:40:35;20.70;99.90
52709;DHT22;38606;52.986;6.980;2022-08-21T07:43:01;20.70;99.90
52709;DHT22;38606;52.986;6.980;2022-08-21T07:45:27;20.70;99.90
52709;DHT22;38606;52.986;6.980;2022-08-21T07:47:52;20.70;99.90
52709;DHT22;38606;52.986;6.980;2022-08-21T07:50:18;20.80;99.90
52709;DHT22;38606;52.986;6.980;2022-08-21T07:52:44;21.10;99.90
52709;DHT22;38606;52.986;6.980;2022-08-21T07:55:12;21.10;99.90
52709;DHT22;38606;52.986;6.980;2022-08-21T07:57:39;21.20;99.90
52709;DHT22;38606;52.986;6.980;2022-08-21T08:00:08;21.20;99.90
52709;DHT22;38606;52.986;6.980;2022-08-21T08:02:34;21.40;99.90
52709;DHT22;38606;52.986;6.980;2022-08-21T08:05:05;21.40;99.90
52709;DHT22;38606;52.986;6.980;2022-08-21T08:07:31;21.30;99.90
52709;DHT22;38606;52.986;6.980;2022-08-21T08:09:57;21.60;99.90
52709;DHT22;38606;52.986;6.980;2022-08-21T08:12:24;21.50;99.90
52709;DHT22;38606;52.986;6.980;2022-08-21T08:14:56;21.80;99.90
52709;DHT22;38606;52.986;6.980;2022-08-21T08:17:22;22.20;99.90
52709;DHT22;38606;52.986;6.980;2022-08-21T08:19:49;21.80;99.90
52709;DHT22;38606;52.986;6.980;2022-08-21T08:22:21;22.20;99.90
52709;DHT22;38606;52.986;6.980;2022-08-21T08:24:49;22.30;99.90
52709;DHT22;38606;52.986;6.980;2022-08-21T08:27:15;22.20;99.90
52709;DHT22;38606;52.986;6.980;2022-08-21T08:29:41;22.20;99.90
52709;DHT22;38606;52.986;6.980;2022-08-21T08:32:07;22.50;99.90
52709;DHT22;38606;52.986;6.980;2022-08-21T08:34:34;22.50;99.90
52709;DHT22;38606;52.986;6.980;2022-08-21T08:37:00;22.60;99.90
52709;DHT22;38606;52.986;6.980;2022-08-21T08:39:27;22.40;99.90
52709;DHT22;38606;52.986;6.980;2022-08-21T08:44:29;22.60;99.90
52709;DHT22;38606;52.986;6.980;2022-08-21T08:46:56;22.90;99.90
52709;DHT22;38606;52.986;6.980;2022-08-21T08:49:24;22.50;99.90
52709;DHT22;38606;52.986;6.980;2022-08-21T08:54:33;22.80;99.90
52709;DHT22;38606;52.986;6.980;2022-08-21T08:57:02;22.90;99.90
52709;DHT22;38606;52.986;6.980;2022-08-21T08:59:39;22.90;99.90
52709;DHT22;38606;52.986;6.980;2022-08-21T09:02:05;22.60;99.90
52709;DHT22;38606;52.986;6.980;2022-08-21T09:04:31;23.10;99.90
52709;DHT22;38606;52.986;6.980;2022-08-21T09:09:48;23.00;99.90
52709;DHT22;38606;52.986;6.980;2022-08-21T09:13:03;22.90;99.90
52709;DHT22;38606;52.986;6.980;2022-08-21T09:19:09;23.40;99.90
52709;DHT22;38606;52.986;6.980;2022-08-21T09:21:41;23.10;99.90
52709;DHT22;38606;52.986;6.980;2022-08-21T09:27:08;23.20;99.90
52709;DHT22;38606;52.986;6.980;2022-08-21T09:29:37;23.60;99.90
52709;DHT22;38606;52.986;6.980;2022-08-21T09:32:15;23.90;99.90
52709;DHT22;38606;52.986;6.980;2022-08-21T09:34:42;24.00;99.90
52709;DHT22;38606;52.986;6.980;2022-08-21T09:37:16;24.10;99.90
52709;DHT22;38606;52.986;6.980;2022-08-21T09:39:43;24.20;99.90
52709;DHT22;38606;52.986;6.980;2022-08-21T09:42:09;23.90;99.90
52709;DHT22;38606;52.986;6.980;2022-08-21T09:44:38;24.00;99.90
52709;DHT22;38606;52.986;6.980;2022-08-21T09:47:10;24.40;99.90
52709;DHT22;38606;52.986;6.980;2022-08-21T09:49:42;24.30;99.90
52709;DHT22;38606;52.986;6.980;2022-08-21T09:52:19;24.10;99.90
52709;DHT22;38606;52.986;6.980;2022-08-21T09:54:54;24.20;99.90
52709;DHT22;38606;52.986;6.980;2022-08-21T09:57:26;24.30;99.90
52709;DHT22;38606;52.986;6.980;2022-08-21T10:00:24;24.30;99.90
52709;DHT22;38606;52.986;6.980;2022-08-21T10:02:50;24.50;99.90
52709;DHT22;38606;52.986;6.980;2022-08-21T10:05:22;24.30;99.90
52709;DHT22;38606;52.986;6.980;2022-08-21T10:07:48;24.10;99.90
52709;DHT22;38606;52.986;6.980;2022-08-21T10:13:20;24.30;99.90
52709;DHT22;38606;52.986;6.980;2022-08-21T10:32:18;24.50;99.90
52709;DHT22;38606;52.986;6.980;2022-08-21T10:39:52;24.90;99.90
52709;DHT22;38606;52.986;6.980;2022-08-21T10:42:46;24.90;99.20
52709;DHT22;38606;52.986;6.980;2022-08-21T10:48:05;25.30;98.90
52709;DHT22;38606;52.986;6.980;2022-08-21T10:51:10;25.30;99.20
52709;DHT22;38606;52.986;6.980;2022-08-21T10:53:45;25.30;97.70
52709;DHT22;38606;52.986;6.980;2022-08-21T10:56:18;25.00;98.40
52709;DHT22;38606;52.986;6.980;2022-08-21T11:07:10;25.70;96.50
52709;DHT22;38606;52.986;6.980;2022-08-21T11:09:37;25.50;97.10
52709;DHT22;38606;52.986;6.980;2022-08-21T11:17:39;25.80;95.50
52709;DHT22;38606;52.986;6.980;2022-08-21T11:20:12;25.60;95.30
52709;DHT22;38606;52.986;6.980;2022-08-21T11:23:08;25.40;94.40
52709;DHT22;38606;52.986;6.980;2022-08-21T11:25:37;25.90;94.00
52709;DHT22;38606;52.986;6.980;2022-08-21T11:28:22;25.70;95.60
52709;DHT22;38606;52.986;6.980;2022-08-21T11:36:34;26.40;92.90
52709;DHT22;38606;52.986;6.980;2022-08-21T11:39:38;26.10;92.60
52709;DHT22;38606;52.986;6.980;2022-08-21T11:52:49;26.70;91.20
52709;DHT22;38606;52.986;6.980;2022-08-21T11:55:23;26.70;88.50
52709;DHT22;38606;52.986;6.980;2022-08-21T11:57:55;26.60;89.70
52709;DHT22;38606;52.986;6.980;2022-08-21T12:00:52;26.60;89.70
52709;DHT22;38606;52.986;6.980;2022-08-21T12:03:31;26.30;86.00
52709;DHT22;38606;52.986;6.980;2022-08-21T12:08:34;26.80;88.30
52709;DHT22;38606;52.986;6.980;2022-08-21T12:13:58;27.10;86.70
52709;DHT22;38606;52.986;6.980;2022-08-21T12:16:36;27.30;87.40
52709;DHT22;38606;52.986;6.980;2022-08-21T12:19:12;27.20;85.20
52709;DHT22;38606;52.986;6.980;2022-08-21T12:30:18;27.00;81.00
52709;DHT22;38606;52.986;6.980;2022-08-21T12:32:46;26.70;83.50
52709;DHT22;38606;52.986;6.980;2022-08-21T12:35:22;26.50;85.60
52709;DHT22;38606;52.986;6.980;2022-08-21T12:38:04;26.60;86.80
52709;DHT22;38606;52.986;6.980;2022-08-21T12:40:39;26.90;83.50
52709;DHT22;38606;52.986;6.980;2022-08-21T12:43:12;26.70;85.00
52709;DHT22;38606;52.986;6.980;2022-08-21T12:45:44;26.90;85.80
52709;DHT22;38606;52.986;6.980;2022-08-21T12:48:17;26.70;85.70
52709;DHT22;38606;52.986;6.980;2022-08-21T12:50:54;26.70;87.20
52709;DHT22;38606;52.986;6.980;2022-08-21T12:53:54;26.70;87.40
52709;DHT22;38606;52.986;6.980;2022-08-21T12:56:28;26.60;85.80
52709;DHT22;38606;52.986;6.980;2022-08-21T12:59:03;26.30;88.20
52709;DHT22;38606;52.986;6.980;2022-08-21T13:01:45;26.40;89.00
52709;DHT22;38606;52.986;6.980;2022-08-21T13:04:17;26.40;90.10
52709;DHT22;38606;52.986;6.980;2022-08-21T13:06:48;26.10;90.40
52709;DHT22;38606;52.986;6.980;2022-08-21T13:09:19;26.00;90.00
52709;DHT22;38606;52.986;6.980;2022-08-21T13:11:47;25.90;90.50
52709;DHT22;38606;52.986;6.980;2022-08-21T13:14:31;25.90;90.60
52709;DHT22;38606;52.986;6.980;2022-08-21T13:16:59;25.80;90.50
52709;DHT22;38606;52.986;6.980;2022-08-21T13:19:25;25.50;92.00
52709;DHT22;38606;52.986;6.980;2022-08-21T13:21:52;25.50;92.50
52709;DHT22;38606;52.986;6.980;2022-08-21T13:24:20;25.30;93.30
52709;DHT22;38606;52.986;6.980;2022-08-21T13:26:46;25.30;93.70
52709;DHT22;38606;52.986;6.980;2022-08-21T13:29:17;25.20;94.60
52709;DHT22;38606;52.986;6.980;2022-08-21T13:31:49;25.10;95.20
52709;DHT22;38606;52.986;6.980;2022-08-21T13:34:19;25.30;96.20
52709;DHT22;38606;52.986;6.980;2022-08-21T13:36:46;25.20;96.70
52709;DHT22;38606;52.986;6.980;2022-08-21T13:39:15;24.60;96.70
52709;DHT22;38606;52.986;6.980;2022-08-21T13:41:45;24.90;97.40
52709;DHT22;38606;52.986;6.980;2022-08-21T13:46:44;24.60;97.10
52709;DHT22;38606;52.986;6.980;2022-08-21T13:49:10;24.80;98.30
52709;DHT22;38606;52.986;6.980;2022-08-21T13:51:39;24.50;99.90
52709;DHT22;38606;52.986;6.980;2022-08-21T13:54:20;24.50;99.90
52709;DHT22;38606;52.986;6.980;2022-08-21T13:56:47;24.00;99.90
52709;DHT22;38606;52.986;6.980;2022-08-21T13:59:24;24.20;99.90
52709;DHT22;38606;52.986;6.980;2022-08-21T14:02:15;23.90;99.90
52709;DHT22;38606;52.986;6.980;2022-08-21T14:04:54;23.90;99.90
52709;DHT22;38606;52.986;6.980;2022-08-21T14:09:51;23.40;99.90
52709;DHT22;38606;52.986;6.980;2022-08-21T14:12:31;23.40;99.90
52709;DHT22;38606;52.986;6.980;2022-08-21T14:15:02;23.30;99.90
52709;DHT22;38606;52.986;6.980;2022-08-21T14:17:35;23.20;99.90
52709;DHT22;38606;52.986;6.980;2022-08-21T14:20:05;23.60;99.90
52709;DHT22;38606;52.986;6.980;2022-08-21T14:25:05;23.80;99.90
52709;DHT22;38606;52.986;6.980;2022-08-21T14:27:33;24.00;99.90
52709;DHT22;38606;52.986;6.980;2022-08-21T14:30:04;24.20;99.90
52709;DHT22;38606;52.986;6.980;2022-08-21T14:32:38;24.20;99.90
52709;DHT22;38606;52.986;6.980;2022-08-21T14:35:04;24.40;99.90
52709;DHT22;38606;52.986;6.980;2022-08-21T14:37:30;24.40;99.90
52709;DHT22;38606;52.986;6.980;2022-08-21T14:39:55;24.40;99.90
52709;DHT22;38606;52.986;6.980;2022-08-21T14:42:21;24.70;99.90
52709;DHT22;38606;52.986;6.980;2022-08-21T14:44:47;24.30;99.90
52709;DHT22;38606;52.986;6.980;2022-08-21T14:47:13;24.60;99.90
52709;DHT22;38606;52.986;6.980;2022-08-21T14:49:38;24.50;99.90
52709;DHT22;38606;52.986;6.980;2022-08-21T14:52:05;24.30;99.90
52709;DHT22;38606;52.986;6.980;2022-08-21T14:54:32;24.60;99.90
52709;DHT22;38606;52.986;6.980;2022-08-21T14:57:01;24.60;99.90
52709;DHT22;38606;52.986;6.980;2022-08-21T14:59:28;24.40;99.90
52709;DHT22;38606;52.986;6.980;2022-08-21T15:01:54;24.30;99.90
52709;DHT22;38606;52.986;6.980;2022-08-21T15:04:21;24.50;99.90
52709;DHT22;38606;52.986;6.980;2022-08-21T15:06:47;24.50;99.90
52709;DHT22;38606;52.986;6.980;2022-08-21T15:09:12;24.30;99.90
52709;DHT22;38606;52.986;6.980;2022-08-21T15:11:38;24.20;99.90
52709;DHT22;38606;52.986;6.980;2022-08-21T15:14:07;24.20;99.90
52709;DHT22;38606;52.986;6.980;2022-08-21T15:16:35;24.40;99.90
52709;DHT22;38606;52.986;6.980;2022-08-21T15:19:01;24.10;99.90
52709;DHT22;38606;52.986;6.980;2022-08-21T15:21:27;24.20;99.90
52709;DHT22;38606;52.986;6.980;2022-08-21T15:23:53;24.30;99.90
52709;DHT22;38606;52.986;6.980;2022-08-21T15:26:22;24.20;99.90
52709;DHT22;38606;52.986;6.980;2022-08-21T15:28:48;24.40;99.90
52709;DHT22;38606;52.986;6.980;2022-08-21T15:31:13;24.40;99.90
52709;DHT22;38606;52.986;6.980;2022-08-21T15:33:39;24.20;99.90
52709;DHT22;38606;52.986;6.980;2022-08-21T15:36:05;24.40;99.90
52709;DHT22;38606;52.986;6.980;2022-08-21T15:38:31;24.60;99.90
52709;DHT22;38606;52.986;6.980;2022-08-21T15:40:57;24.50;99.90
52709;DHT22;38606;52.986;6.980;2022-08-21T15:43:31;24.60;99.90
52709;DHT22;38606;52.986;6.980;2022-08-21T15:45:59;24.50;99.90
52709;DHT22;38606;52.986;6.980;2022-08-21T15:48:26;24.40;99.90
52709;DHT22;38606;52.986;6.980;2022-08-21T15:50:52;24.50;99.90
52709;DHT22;38606;52.986;6.980;2022-08-21T15:53:17;24.60;99.90
52709;DHT22;38606;52.986;6.980;2022-08-21T15:55:43;24.20;99.90
52709;DHT22;38606;52.986;6.980;2022-08-21T15:58:15;24.40;99.90
52709;DHT22;38606;52.986;6.980;2022-08-21T16:00:42;24.20;99.90
52709;DHT22;38606;52.986;6.980;2022-08-21T16:03:11;24.10;99.90
52709;DHT22;38606;52.986;6.980;2022-08-21T16:05:39;23.90;99.90
52709;DHT22;38606;52.986;6.980;2022-08-21T16:08:05;24.00;99.90
52709;DHT22;38606;52.986;6.980;2022-08-21T16:10:31;23.80;99.90
52709;DHT22;38606;52.986;6.980;2022-08-21T16:13:02;24.00;99.90
52709;DHT22;38606;52.986;6.980;2022-08-21T16:15:29;23.60;99.90
52709;DHT22;38606;52.986;6.980;2022-08-21T16:17:55;24.00;99.90
52709;DHT22;38606;52.986;6.980;2022-08-21T16:20:24;23.60;99.90
52709;DHT22;38606;52.986;6.980;2022-08-21T16:22:52;23.40;99.90
52709;DHT22;38606;52.986;6.980;2022-08-21T16:25:19;23.60;99.90
52709;DHT22;38606;52.986;6.980;2022-08-21T16:27:48;23.20;99.90
52709;DHT22;38606;52.986;6.980;2022-08-21T16:30:15;23.10;99.90
52709;DHT22;38606;52.986;6.980;2022-08-21T16:32:43;23.40;99.90
52709;DHT22;38606;52.986;6.980;2022-08-21T16:35:15;23.40;99.90
52709;DHT22;38606;52.986;6.980;2022-08-21T16:37:42;23.20;99.90
52709;DHT22;38606;52.986;6.980;2022-08-21T16:40:09;23.10;99.90
52709;DHT22;38606;52.986;6.980;2022-08-21T16:42:36;22.80;99.90
52709;DHT22;38606;52.986;6.980;2022-08-21T16:45:09;22.80;99.90
52709;DHT22;38606;52.986;6.980;2022-08-21T16:47:35;22.90;99.90
52709;DHT22;38606;52.986;6.980;2022-08-21T16:50:01;22.60;99.90
52709;DHT22;38606;52.986;6.980;2022-08-21T16:52:27;22.60;99.90
52709;DHT22;38606;52.986;6.980;2022-08-21T16:54:52;22.60;99.90
52709;DHT22;38606;52.986;6.980;2022-08-21T16:57:18;22.60;99.90
52709;DHT22;38606;52.986;6.980;2022-08-21T16:59:44;22.70;99.90
52709;DHT22;38606;52.986;6.980;2022-08-21T17:02:20;22.30;99.90
52709;DHT22;38606;52.986;6.980;2022-08-21T17:04:48;22.10;99.90
52709;DHT22;38606;52.986;6.980;2022-08-21T17:07:14;22.10;99.90
52709;DHT22;38606;52.986;6.980;2022-08-21T17:09:40;24.20;99.90
52709;DHT22;38606;52.986;6.980;2022-08-21T17:12:06;21.70;99.90
52709;DHT22;38606;52.986;6.980;2022-08-21T17:14:34;21.80;99.90